createdAt,value
2022-11-25T00:01:31.783Z,2.31
2022-11-25T00:04:04.250Z,1.62
2022-11-25T00:06:36.103Z,2.08
2022-11-25T00:09:10.326Z,2.12
2022-11-25T00:11:40.211Z,2.02
2022-11-25T00:14:12.891Z,1.79
2022-11-25T00:16:43.742Z,1.68
2022-11-25T00:19:16.112Z,2.02
2022-11-25T00:21:46.138Z,2.21
2022-11-25T00:24:15.848Z,1.98
2022-11-25T00:26:45.734Z,2.25
2022-11-25T00:29:15.854Z,1.85
2022-11-25T00:31:43.309Z,1.79
2022-11-25T00:34:17.093Z,1.48
2022-11-25T00:36:44.176Z,1.73
2022-11-25T00:39:14.147Z,1.64
2022-11-25T00:41:59.918Z,2.02
2022-11-25T00:44:36.534Z,2.14
2022-11-25T00:47:15.037Z,1.31
2022-11-25T00:49:47.609Z,1.49
2022-11-25T00:52:18.278Z,1.64
2022-11-25T00:54:47.892Z,1.13
2022-11-25T00:57:16.514Z,2.14
2022-11-25T00:59:46.573Z,1.35
2022-11-25T01:02:15.780Z,1.07
2022-11-25T01:04:45.480Z,1.42
2022-11-25T01:07:12.832Z,1.01
2022-11-25T01:09:40.291Z,1.70
2022-11-25T01:12:09.592Z,1.49
2022-11-25T01:14:37.449Z,1.95
2022-11-25T01:17:05.068Z,1.16
2022-11-25T01:19:32.203Z,1.22
2022-11-25T01:21:59.240Z,1.29
2022-11-25T01:24:28.831Z,1.75
2022-11-25T01:26:56.434Z,1.33
2022-11-25T01:29:27.159Z,1.49
2022-11-25T01:31:57.890Z,1.34
2022-11-25T01:34:28.076Z,1.72
2022-11-25T01:36:55.208Z,1.76
2022-11-25T01:39:30.462Z,1.19
2022-11-25T01:42:03.253Z,0.95
2022-11-25T01:44:33.273Z,1.37
2022-11-25T01:47:05.827Z,1.92
2022-11-25T01:49:51.028Z,1.86
2022-11-25T01:52:28.505Z,2.05
2022-11-25T01:55:14.676Z,1.68
2022-11-25T01:57:47.578Z,1.25
2022-11-25T02:00:15.790Z,1.51
2022-11-25T02:07:06.781Z,1.30
2022-11-25T09:41:15.274Z,4.80
2022-11-25T10:02:45.643Z,4.51
2022-11-25T10:21:30.038Z,4.72
2022-11-25T10:24:22.364Z,5.11
2022-11-25T10:27:15.640Z,6.46
2022-11-25T10:30:20.368Z,4.77
2022-11-25T10:33:05.692Z,6.53
2022-11-25T10:36:09.662Z,5.57
2022-11-25T10:42:33.088Z,4.97
2022-11-25T10:45:28.710Z,4.71
2022-11-25T10:48:49.605Z,6.63
2022-11-25T10:51:50.307Z,6.59
2022-11-25T11:01:25.981Z,5.71
2022-11-25T11:04:42.188Z,6.68
2022-11-25T11:22:32.455Z,7.02
2022-11-25T11:30:04.942Z,5.42
2022-11-25T11:47:25.638Z,7.62
2022-11-25T11:54:31.999Z,6.18
2022-11-25T11:57:51.663Z,6.35
2022-11-25T12:00:52.585Z,7.64
2022-11-25T12:03:39.412Z,6.02
2022-11-25T12:10:36.821Z,6.06
2022-11-25T12:13:22.434Z,7.95
2022-11-25T12:16:00.260Z,7.41
2022-11-25T12:19:16.456Z,8.17
2022-11-25T12:21:54.228Z,7.50
2022-11-25T12:25:37.353Z,8.38
2022-11-25T12:43:42.267Z,8.13
2022-11-25T12:54:31.542Z,9.58
2022-11-25T12:57:50.549Z,8.32
2022-11-25T13:00:57.487Z,9.51
2022-11-25T13:03:51.903Z,9.54
2022-11-25T13:06:55.047Z,9.56
2022-11-25T13:09:54.893Z,9.77
2022-11-25T13:12:39.282Z,9.71
2022-11-25T13:15:48.399Z,9.95
2022-11-25T13:18:24.126Z,9.51
2022-11-25T13:20:56.572Z,8.38
2022-11-25T13:31:58.885Z,9.91
2022-11-25T13:34:36.967Z,9.34
2022-11-25T13:37:42.332Z,9.89
2022-11-25T13:40:33.256Z,9.87
2022-11-25T13:43:00.942Z,9.63
2022-11-25T13:45:49.719Z,8.90
2022-11-25T13:48:29.403Z,8.89
2022-11-25T13:57:57.123Z,9.92
2022-11-25T14:00:49.052Z,9.92
2022-11-25T14:03:37.318Z,9.99
2022-11-25T14:06:31.897Z,9.90
2022-11-25T14:09:19.930Z,8.30
2022-11-25T14:12:34.381Z,8.50
2022-11-25T14:15:26.534Z,9.96
2022-11-25T14:19:28.148Z,9.89
2022-11-25T14:22:15.769Z,8.22
2022-11-25T14:25:43.519Z,9.89
2022-11-25T15:22:32.034Z,7.47
2022-11-25T15:23:41.790Z,7.31
2022-11-25T15:37:51.332Z,7.26
2022-11-25T15:40:45.568Z,6.85
2022-11-25T15:51:04.797Z,7.72
2022-11-25T15:53:40.820Z,5.99
2022-11-25T16:01:00.993Z,5.70
2022-11-25T16:04:44.609Z,7.47
2022-11-25T16:07:24.915Z,5.87
2022-11-25T16:17:17.707Z,7.35
2022-11-25T16:31:17.453Z,7.19
2022-11-25T16:33:44.872Z,6.12
2022-11-25T16:37:19.709Z,7.19
2022-11-25T16:43:47.767Z,5.19
2022-11-25T16:50:59.423Z,7.07
2022-11-25T16:54:06.206Z,5.79
2022-11-25T17:00:22.093Z,6.10
2022-11-25T17:02:52.956Z,7.13
2022-11-25T17:05:26.111Z,5.34
2022-11-25T17:08:47.270Z,6.94
2022-11-25T17:15:14.969Z,4.93
2022-11-25T17:21:50.488Z,4.95
2022-11-25T17:32:20.092Z,5.73
2022-11-25T17:35:07.941Z,5.95
2022-11-25T17:38:16.034Z,4.85
2022-11-25T17:40:51.979Z,4.71
2022-11-25T17:46:27.046Z,5.53
2022-11-25T17:48:57.459Z,5.79
2022-11-25T17:52:04.945Z,6.46
2022-11-25T17:54:32.145Z,4.86
2022-11-25T17:59:53.515Z,6.06
2022-11-25T18:02:39.748Z,4.78
2022-11-25T18:05:25.411Z,6.14
2022-11-25T18:07:59.283Z,6.01
2022-11-25T18:10:41.677Z,6.81
2022-11-25T18:13:19.380Z,5.07
2022-11-25T18:15:49.096Z,6.20
2022-11-25T18:18:24.739Z,6.89
2022-11-25T18:20:58.432Z,6.66
2022-11-25T18:23:28.577Z,5.96
2022-11-25T18:26:00.813Z,5.55
2022-11-25T18:28:36.894Z,6.35
2022-11-25T18:31:18.255Z,6.04
2022-11-25T18:34:31.579Z,7.01
2022-11-25T18:37:13.035Z,6.45
2022-11-25T18:39:43.244Z,6.31
2022-11-25T18:42:26.620Z,6.41
2022-11-25T18:45:08.414Z,6.32
2022-11-25T18:47:35.741Z,5.28
2022-11-25T18:50:04.138Z,5.25
2022-11-25T18:52:37.065Z,6.34
2022-11-25T18:55:39.422Z,6.92
2022-11-25T18:58:26.963Z,6.15
2022-11-25T19:01:05.581Z,5.82
2022-11-25T19:03:38.304Z,5.35
2022-11-25T19:06:47.670Z,7.06
2022-11-25T19:09:18.236Z,5.27
2022-11-25T19:12:17.461Z,7.15
2022-11-25T19:15:23.415Z,7.18
2022-11-25T19:18:26.042Z,5.34
2022-11-25T19:33:39.816Z,6.84
2022-11-25T19:37:40.802Z,5.27
2022-11-25T20:21:10.722Z,5.67
2022-11-25T20:31:30.673Z,5.67
2022-11-25T20:52:51.601Z,6.44
2022-11-25T21:02:21.991Z,7.47
2022-11-25T21:05:51.805Z,8.23
2022-11-25T21:44:14.415Z,7.99
2022-11-25T22:13:46.124Z,7.40
2022-11-25T22:16:56.896Z,7.15
2022-11-25T22:20:07.139Z,6.82
2022-11-25T22:26:45.961Z,5.27
2022-11-25T22:54:19.387Z,5.97
2022-11-25T23:27:03.408Z,3.85
2022-11-25T23:38:29.841Z,5.38
